sensor_id;sensor_type;location;lat;lon;timestamp;temperature;humidity
21493;DHT22;10908;50.690;4.400;2023-04-06T00:01:55;7.80;58.20
21493;DHT22;10908;50.690;4.400;2023-04-06T00:04:21;7.80;58.40
21493;DHT22;10908;50.690;4.400;2023-04-06T00:06:46;7.80;58.80
21493;DHT22;10908;50.690;4.400;2023-04-06T00:09:12;7.70;59.10
21493;DHT22;10908;50.690;4.400;2023-04-06T00:11:38;7.60;59.60
21493;DHT22;10908;50.690;4.400;2023-04-06T00:14:03;7.70;59.90
21493;DHT22;10908;50.690;4.400;2023-04-06T00:16:29;7.80;59.60
21493;DHT22;10908;50.690;4.400;2023-04-06T00:18:55;7.80;59.90
21493;DHT22;10908;50.690;4.400;2023-04-06T00:21:21;7.70;60.20
21493;DHT22;10908;50.690;4.400;2023-04-06T00:23:46;7.70;60.40
21493;DHT22;10908;50.690;4.400;2023-04-06T00:26:12;7.70;60.50
21493;DHT22;10908;50.690;4.400;2023-04-06T00:28:38;7.70;60.60
21493;DHT22;10908;50.690;4.400;2023-04-06T00:31:03;7.80;60.50
21493;DHT22;10908;50.690;4.400;2023-04-06T00:33:29;7.70;60.80
21493;DHT22;10908;50.690;4.400;2023-04-06T00:35:55;7.60;61.30
21493;DHT22;10908;50.690;4.400;2023-04-06T00:38:21;7.50;61.60
21493;DHT22;10908;50.690;4.400;2023-04-06T00:40:47;7.60;61.30
21493;DHT22;10908;50.690;4.400;2023-04-06T00:43:13;7.60;60.80
21493;DHT22;10908;50.690;4.400;2023-04-06T00:45:39;7.50;61.20
21493;DHT22;10908;50.690;4.400;2023-04-06T00:48:06;7.60;61.10
21493;DHT22;10908;50.690;4.400;2023-04-06T00:50:32;7.50;60.60
21493;DHT22;10908;50.690;4.400;2023-04-06T00:52:58;7.50;60.50
21493;DHT22;10908;50.690;4.400;2023-04-06T00:55:26;7.40;60.80
21493;DHT22;10908;50.690;4.400;2023-04-06T00:57:51;7.40;60.70
21493;DHT22;10908;50.690;4.400;2023-04-06T01:00:17;7.50;60.40
21493;DHT22;10908;50.690;4.400;2023-04-06T01:02:43;7.40;60.30
21493;DHT22;10908;50.690;4.400;2023-04-06T01:05:10;7.40;60.40
21493;DHT22;10908;50.690;4.400;2023-04-06T01:07:36;7.30;60.70
21493;DHT22;10908;50.690;4.400;2023-04-06T01:10:02;7.30;60.80
21493;DHT22;10908;50.690;4.400;2023-04-06T01:12:28;7.40;60.40
21493;DHT22;10908;50.690;4.400;2023-04-06T01:14:54;7.50;60.40
21493;DHT22;10908;50.690;4.400;2023-04-06T01:17:20;7.50;60.60
21493;DHT22;10908;50.690;4.400;2023-04-06T01:19:46;7.30;60.50
21493;DHT22;10908;50.690;4.400;2023-04-06T01:22:18;7.40;60.20
21493;DHT22;10908;50.690;4.400;2023-04-06T01:24:44;7.40;60.20
21493;DHT22;10908;50.690;4.400;2023-04-06T01:27:10;7.30;60.50
21493;DHT22;10908;50.690;4.400;2023-04-06T01:29:35;7.40;60.30
21493;DHT22;10908;50.690;4.400;2023-04-06T01:32:01;7.20;60.80
21493;DHT22;10908;50.690;4.400;2023-04-06T01:34:27;7.20;61.50
21493;DHT22;10908;50.690;4.400;2023-04-06T01:36:53;7.10;61.40
21493;DHT22;10908;50.690;4.400;2023-04-06T01:39:20;6.90;62.00
21493;DHT22;10908;50.690;4.400;2023-04-06T01:41:45;6.90;62.50
21493;DHT22;10908;50.690;4.400;2023-04-06T01:44:15;6.90;63.00
21493;DHT22;10908;50.690;4.400;2023-04-06T01:46:41;6.80;63.30
21493;DHT22;10908;50.690;4.400;2023-04-06T01:49:07;6.80;63.50
21493;DHT22;10908;50.690;4.400;2023-04-06T01:51:32;6.70;63.90
21493;DHT22;10908;50.690;4.400;2023-04-06T01:53:58;6.70;64.10
21493;DHT22;10908;50.690;4.400;2023-04-06T01:56:24;6.60;64.60
21493;DHT22;10908;50.690;4.400;2023-04-06T01:58:49;6.60;64.90
21493;DHT22;10908;50.690;4.400;2023-04-06T02:01:15;6.40;65.60
21493;DHT22;10908;50.690;4.400;2023-04-06T02:03:41;6.40;66.00
21493;DHT22;10908;50.690;4.400;2023-04-06T02:06:06;6.50;66.00
21493;DHT22;10908;50.690;4.400;2023-04-06T02:08:32;6.60;65.60
21493;DHT22;10908;50.690;4.400;2023-04-06T02:10:58;6.60;65.40
21493;DHT22;10908;50.690;4.400;2023-04-06T02:13:24;6.70;65.50
21493;DHT22;10908;50.690;4.400;2023-04-06T02:15:49;6.60;65.20
21493;DHT22;10908;50.690;4.400;2023-04-06T02:18:15;6.70;65.40
21493;DHT22;10908;50.690;4.400;2023-04-06T02:20:43;6.90;64.50
21493;DHT22;10908;50.690;4.400;2023-04-06T02:23:08;6.90;64.00
21493;DHT22;10908;50.690;4.400;2023-04-06T02:25:34;6.80;63.80
21493;DHT22;10908;50.690;4.400;2023-04-06T02:28:00;6.80;63.90
21493;DHT22;10908;50.690;4.400;2023-04-06T02:30:26;6.90;63.70
21493;DHT22;10908;50.690;4.400;2023-04-06T02:32:52;6.90;63.50
21493;DHT22;10908;50.690;4.400;2023-04-06T02:35:17;6.80;63.70
21493;DHT22;10908;50.690;4.400;2023-04-06T02:37:43;6.70;63.80
21493;DHT22;10908;50.690;4.400;2023-04-06T02:40:09;6.60;63.80
21493;DHT22;10908;50.690;4.400;2023-04-06T02:42:35;6.60;64.30
21493;DHT22;10908;50.690;4.400;2023-04-06T02:45:01;6.80;64.10
21493;DHT22;10908;50.690;4.400;2023-04-06T02:47:27;6.80;63.60
21493;DHT22;10908;50.690;4.400;2023-04-06T02:49:52;6.80;63.60
21493;DHT22;10908;50.690;4.400;2023-04-06T02:52:18;6.70;63.40
21493;DHT22;10908;50.690;4.400;2023-04-06T02:54:44;6.80;63.70
21493;DHT22;10908;50.690;4.400;2023-04-06T02:57:09;6.80;63.40
21493;DHT22;10908;50.690;4.400;2023-04-06T02:59:35;6.80;63.70
21493;DHT22;10908;50.690;4.400;2023-04-06T03:02:01;6.70;63.30
21493;DHT22;10908;50.690;4.400;2023-04-06T03:04:26;6.60;63.00
21493;DHT22;10908;50.690;4.400;2023-04-06T03:06:54;6.60;63.00
21493;DHT22;10908;50.690;4.400;2023-04-06T03:09:20;6.60;63.30
21493;DHT22;10908;50.690;4.400;2023-04-06T03:11:46;6.70;62.70
21493;DHT22;10908;50.690;4.400;2023-04-06T03:14:11;6.70;62.60
21493;DHT22;10908;50.690;4.400;2023-04-06T03:16:37;6.80;62.30
21493;DHT22;10908;50.690;4.400;2023-04-06T03:19:03;6.80;62.30
21493;DHT22;10908;50.690;4.400;2023-04-06T03:21:28;6.70;62.40
21493;DHT22;10908;50.690;4.400;2023-04-06T03:23:54;6.60;62.90
21493;DHT22;10908;50.690;4.400;2023-04-06T03:26:20;6.60;63.10
21493;DHT22;10908;50.690;4.400;2023-04-06T03:28:47;6.50;63.50
21493;DHT22;10908;50.690;4.400;2023-04-06T03:31:13;6.50;63.80
21493;DHT22;10908;50.690;4.400;2023-04-06T03:33:38;6.60;63.40
21493;DHT22;10908;50.690;4.400;2023-04-06T03:36:05;6.60;63.00
21493;DHT22;10908;50.690;4.400;2023-04-06T03:38:30;6.60;62.90
21493;DHT22;10908;50.690;4.400;2023-04-06T03:40:56;6.60;62.60
21493;DHT22;10908;50.690;4.400;2023-04-06T03:43:22;6.50;63.10
21493;DHT22;10908;50.690;4.400;2023-04-06T03:45:47;6.60;63.00
21493;DHT22;10908;50.690;4.400;2023-04-06T03:48:13;6.60;63.00
21493;DHT22;10908;50.690;4.400;2023-04-06T03:50:39;6.60;62.80
21493;DHT22;10908;50.690;4.400;2023-04-06T03:53:04;6.50;63.00
21493;DHT22;10908;50.690;4.400;2023-04-06T03:55:30;6.60;62.90
21493;DHT22;10908;50.690;4.400;2023-04-06T03:57:56;6.70;62.70
21493;DHT22;10908;50.690;4.400;2023-04-06T04:00:22;6.70;62.80
21493;DHT22;10908;50.690;4.400;2023-04-06T04:02:47;6.70;62.80
21493;DHT22;10908;50.690;4.400;2023-04-06T04:05:13;6.70;62.80
21493;DHT22;10908;50.690;4.400;2023-04-06T04:07:39;6.80;62.70
21493;DHT22;10908;50.690;4.400;2023-04-06T04:10:05;6.80;62.70
21493;DHT22;10908;50.690;4.400;2023-04-06T04:12:31;6.90;62.50
21493;DHT22;10908;50.690;4.400;2023-04-06T04:14:56;6.90;63.10
21493;DHT22;10908;50.690;4.400;2023-04-06T04:17:22;6.90;63.00
21493;DHT22;10908;50.690;4.400;2023-04-06T04:19:48;6.90;62.20
21493;DHT22;10908;50.690;4.400;2023-04-06T04:22:13;6.90;62.70
21493;DHT22;10908;50.690;4.400;2023-04-06T04:24:39;6.90;62.90
21493;DHT22;10908;50.690;4.400;2023-04-06T04:27:05;6.90;63.10
21493;DHT22;10908;50.690;4.400;2023-04-06T04:29:31;6.90;62.90
21493;DHT22;10908;50.690;4.400;2023-04-06T04:31:56;6.80;63.30
21493;DHT22;10908;50.690;4.400;2023-04-06T04:34:22;6.90;63.10
21493;DHT22;10908;50.690;4.400;2023-04-06T04:36:51;6.90;63.10
21493;DHT22;10908;50.690;4.400;2023-04-06T04:39:16;7.00;63.00
21493;DHT22;10908;50.690;4.400;2023-04-06T04:41:42;6.90;62.80
21493;DHT22;10908;50.690;4.400;2023-04-06T04:44:08;7.00;62.60
21493;DHT22;10908;50.690;4.400;2023-04-06T04:46:33;7.10;62.50
21493;DHT22;10908;50.690;4.400;2023-04-06T04:48:59;7.30;61.70
21493;DHT22;10908;50.690;4.400;2023-04-06T04:51:25;7.40;61.30
21493;DHT22;10908;50.690;4.400;2023-04-06T04:53:51;7.30;61.60
21493;DHT22;10908;50.690;4.400;2023-04-06T04:56:16;7.30;62.00
21493;DHT22;10908;50.690;4.400;2023-04-06T04:58:42;7.20;62.10
21493;DHT22;10908;50.690;4.400;2023-04-06T05:01:08;7.20;62.00
21493;DHT22;10908;50.690;4.400;2023-04-06T05:03:34;7.30;62.10
21493;DHT22;10908;50.690;4.400;2023-04-06T05:06:01;7.30;62.00
21493;DHT22;10908;50.690;4.400;2023-04-06T05:08:26;7.30;62.00
21493;DHT22;10908;50.690;4.400;2023-04-06T05:10:52;7.30;62.00
21493;DHT22;10908;50.690;4.400;2023-04-06T05:13:18;7.30;62.50
21493;DHT22;10908;50.690;4.400;2023-04-06T05:15:44;7.30;62.50
21493;DHT22;10908;50.690;4.400;2023-04-06T05:18:10;7.20;62.60
21493;DHT22;10908;50.690;4.400;2023-04-06T05:20:37;7.20;62.80
21493;DHT22;10908;50.690;4.400;2023-04-06T05:23:03;7.20;63.10
21493;DHT22;10908;50.690;4.400;2023-04-06T05:25:29;7.30;63.00
21493;DHT22;10908;50.690;4.400;2023-04-06T05:27:55;7.40;62.70
21493;DHT22;10908;50.690;4.400;2023-04-06T05:30:20;7.60;62.00
21493;DHT22;10908;50.690;4.400;2023-04-06T05:32:46;7.70;61.80
21493;DHT22;10908;50.690;4.400;2023-04-06T05:35:12;7.60;61.90
21493;DHT22;10908;50.690;4.400;2023-04-06T05:37:38;7.60;62.50
21493;DHT22;10908;50.690;4.400;2023-04-06T05:40:05;7.70;62.40
21493;DHT22;10908;50.690;4.400;2023-04-06T05:42:41;7.60;63.20
21493;DHT22;10908;50.690;4.400;2023-04-06T05:45:09;7.50;64.50
21493;DHT22;10908;50.690;4.400;2023-04-06T05:47:36;7.60;63.90
21493;DHT22;10908;50.690;4.400;2023-04-06T05:50:02;7.60;63.90
21493;DHT22;10908;50.690;4.400;2023-04-06T05:52:28;7.60;63.90
21493;DHT22;10908;50.690;4.400;2023-04-06T05:54:53;7.80;63.70
21493;DHT22;10908;50.690;4.400;2023-04-06T05:57:19;7.70;64.10
21493;DHT22;10908;50.690;4.400;2023-04-06T05:59:45;7.70;64.10
21493;DHT22;10908;50.690;4.400;2023-04-06T06:02:11;7.80;63.90
21493;DHT22;10908;50.690;4.400;2023-04-06T06:04:36;7.80;63.70
21493;DHT22;10908;50.690;4.400;2023-04-06T06:07:02;7.80;64.00
21493;DHT22;10908;50.690;4.400;2023-04-06T06:09:28;7.90;63.90
21493;DHT22;10908;50.690;4.400;2023-04-06T06:11:54;7.90;63.90
21493;DHT22;10908;50.690;4.400;2023-04-06T06:14:20;8.00;63.30
21493;DHT22;10908;50.690;4.400;2023-04-06T06:16:47;8.10;63.30
21493;DHT22;10908;50.690;4.400;2023-04-06T06:19:13;8.10;63.60
21493;DHT22;10908;50.690;4.400;2023-04-06T06:21:39;8.10;63.30
21493;DHT22;10908;50.690;4.400;2023-04-06T06:24:05;8.20;63.50
21493;DHT22;10908;50.690;4.400;2023-04-06T06:26:30;8.20;64.50
21493;DHT22;10908;50.690;4.400;2023-04-06T06:28:57;8.20;64.60
21493;DHT22;10908;50.690;4.400;2023-04-06T06:31:22;8.10;65.20
21493;DHT22;10908;50.690;4.400;2023-04-06T06:33:51;8.20;65.60
21493;DHT22;10908;50.690;4.400;2023-04-06T06:36:17;8.30;66.30
21493;DHT22;10908;50.690;4.400;2023-04-06T06:38:44;8.20;67.40
21493;DHT22;10908;50.690;4.400;2023-04-06T06:41:10;8.20;68.80
21493;DHT22;10908;50.690;4.400;2023-04-06T06:43:36;8.30;69.80
21493;DHT22;10908;50.690;4.400;2023-04-06T06:46:02;8.30;70.80
21493;DHT22;10908;50.690;4.400;2023-04-06T06:48:28;8.20;71.10
21493;DHT22;10908;50.690;4.400;2023-04-06T06:50:54;8.20;71.50
21493;DHT22;10908;50.690;4.400;2023-04-06T06:53:20;8.20;72.90
21493;DHT22;10908;50.690;4.400;2023-04-06T06:55:46;8.20;73.30
21493;DHT22;10908;50.690;4.400;2023-04-06T06:58:14;8.10;73.80
21493;DHT22;10908;50.690;4.400;2023-04-06T07:00:41;8.10;74.20
21493;DHT22;10908;50.690;4.400;2023-04-06T07:03:08;8.10;74.90
21493;DHT22;10908;50.690;4.400;2023-04-06T07:05:34;8.10;75.00
21493;DHT22;10908;50.690;4.400;2023-04-06T07:08:00;8.00;75.40
21493;DHT22;10908;50.690;4.400;2023-04-06T07:10:26;8.10;75.60
21493;DHT22;10908;50.690;4.400;2023-04-06T07:12:52;8.10;75.40
21493;DHT22;10908;50.690;4.400;2023-04-06T07:15:18;8.00;76.60
21493;DHT22;10908;50.690;4.400;2023-04-06T07:17:44;8.10;77.20
21493;DHT22;10908;50.690;4.400;2023-04-06T07:20:13;8.10;77.40
21493;DHT22;10908;50.690;4.400;2023-04-06T07:22:39;8.10;77.70
21493;DHT22;10908;50.690;4.400;2023-04-06T07:25:06;8.30;78.00
21493;DHT22;10908;50.690;4.400;2023-04-06T07:27:31;8.20;78.50
21493;DHT22;10908;50.690;4.400;2023-04-06T07:29:57;8.30;78.90
21493;DHT22;10908;50.690;4.400;2023-04-06T07:32:23;8.30;79.10
21493;DHT22;10908;50.690;4.400;2023-04-06T07:34:49;8.30;79.30
21493;DHT22;10908;50.690;4.400;2023-04-06T07:37:14;8.30;79.70
21493;DHT22;10908;50.690;4.400;2023-04-06T07:39:40;8.30;80.30
21493;DHT22;10908;50.690;4.400;2023-04-06T07:42:06;8.40;80.10
21493;DHT22;10908;50.690;4.400;2023-04-06T07:44:32;8.50;79.90
21493;DHT22;10908;50.690;4.400;2023-04-06T07:46:57;8.50;80.30
21493;DHT22;10908;50.690;4.400;2023-04-06T07:49:23;8.50;80.60
21493;DHT22;10908;50.690;4.400;2023-04-06T07:51:49;8.50;80.80
21493;DHT22;10908;50.690;4.400;2023-04-06T07:54:15;8.40;81.00
21493;DHT22;10908;50.690;4.400;2023-04-06T07:56:41;8.40;81.60
21493;DHT22;10908;50.690;4.400;2023-04-06T07:59:06;8.40;81.80
21493;DHT22;10908;50.690;4.400;2023-04-06T08:01:32;8.40;82.40
21493;DHT22;10908;50.690;4.400;2023-04-06T08:03:58;8.50;82.50
21493;DHT22;10908;50.690;4.400;2023-04-06T08:06:24;8.50;82.30
21493;DHT22;10908;50.690;4.400;2023-04-06T08:08:50;8.60;82.40
21493;DHT22;10908;50.690;4.400;2023-04-06T08:11:16;8.40;82.80
21493;DHT22;10908;50.690;4.400;2023-04-06T08:13:41;8.50;83.00
21493;DHT22;10908;50.690;4.400;2023-04-06T08:16:07;8.60;82.80
21493;DHT22;10908;50.690;4.400;2023-04-06T08:18:33;8.50;82.70
21493;DHT22;10908;50.690;4.400;2023-04-06T08:20:59;8.50;82.70
21493;DHT22;10908;50.690;4.400;2023-04-06T08:23:25;8.60;83.00
21493;DHT22;10908;50.690;4.400;2023-04-06T08:25:50;8.60;83.10
21493;DHT22;10908;50.690;4.400;2023-04-06T08:28:20;8.60;83.20
21493;DHT22;10908;50.690;4.400;2023-04-06T08:30:45;8.70;83.50
21493;DHT22;10908;50.690;4.400;2023-04-06T08:33:11;8.60;83.30
21493;DHT22;10908;50.690;4.400;2023-04-06T08:35:37;8.60;83.60
21493;DHT22;10908;50.690;4.400;2023-04-06T08:38:03;8.60;83.60
21493;DHT22;10908;50.690;4.400;2023-04-06T08:40:29;8.60;83.90
21493;DHT22;10908;50.690;4.400;2023-04-06T08:42:56;8.70;84.00
21493;DHT22;10908;50.690;4.400;2023-04-06T08:45:22;8.80;84.00
21493;DHT22;10908;50.690;4.400;2023-04-06T08:47:50;8.90;83.90
21493;DHT22;10908;50.690;4.400;2023-04-06T08:50:17;8.90;83.70
21493;DHT22;10908;50.690;4.400;2023-04-06T08:52:47;8.80;83.30
21493;DHT22;10908;50.690;4.400;2023-04-06T08:55:14;8.80;83.80
21493;DHT22;10908;50.690;4.400;2023-04-06T08:57:40;8.90;83.70
21493;DHT22;10908;50.690;4.400;2023-04-06T09:00:09;8.80;83.90
21493;DHT22;10908;50.690;4.400;2023-04-06T09:02:42;8.90;84.20
21493;DHT22;10908;50.690;4.400;2023-04-06T09:05:09;8.90;84.20
21493;DHT22;10908;50.690;4.400;2023-04-06T09:07:38;8.80;84.30
21493;DHT22;10908;50.690;4.400;2023-04-06T09:10:05;8.80;84.60
21493;DHT22;10908;50.690;4.400;2023-04-06T09:12:31;8.80;84.50
21493;DHT22;10908;50.690;4.400;2023-04-06T09:14:58;8.80;84.00
21493;DHT22;10908;50.690;4.400;2023-04-06T09:17:29;8.90;83.80
21493;DHT22;10908;50.690;4.400;2023-04-06T09:19:58;8.90;83.70
21493;DHT22;10908;50.690;4.400;2023-04-06T09:22:23;8.90;83.60
21493;DHT22;10908;50.690;4.400;2023-04-06T09:24:54;8.90;83.30
21493;DHT22;10908;50.690;4.400;2023-04-06T09:27:37;8.80;83.70
21493;DHT22;10908;50.690;4.400;2023-04-06T09:30:11;8.50;83.80
21493;DHT22;10908;50.690;4.400;2023-04-06T09:32:53;8.50;84.50
21493;DHT22;10908;50.690;4.400;2023-04-06T09:35:20;8.50;84.70
21493;DHT22;10908;50.690;4.400;2023-04-06T09:37:47;8.50;84.80
21493;DHT22;10908;50.690;4.400;2023-04-06T09:40:13;8.50;84.70
21493;DHT22;10908;50.690;4.400;2023-04-06T09:42:44;8.50;84.80
21493;DHT22;10908;50.690;4.400;2023-04-06T09:45:11;8.50;85.00
21493;DHT22;10908;50.690;4.400;2023-04-06T09:47:37;8.60;85.20
21493;DHT22;10908;50.690;4.400;2023-04-06T09:50:06;8.80;84.90
21493;DHT22;10908;50.690;4.400;2023-04-06T09:52:36;8.60;84.30
21493;DHT22;10908;50.690;4.400;2023-04-06T09:55:04;8.60;84.90
21493;DHT22;10908;50.690;4.400;2023-04-06T09:57:45;8.60;85.50
21493;DHT22;10908;50.690;4.400;2023-04-06T10:00:14;8.60;84.90
21493;DHT22;10908;50.690;4.400;2023-04-06T10:03:02;8.50;85.00
21493;DHT22;10908;50.690;4.400;2023-04-06T10:05:37;8.60;85.40
21493;DHT22;10908;50.690;4.400;2023-04-06T10:08:09;8.60;85.30
21493;DHT22;10908;50.690;4.400;2023-04-06T10:10:35;8.70;85.40
21493;DHT22;10908;50.690;4.400;2023-04-06T10:13:02;8.80;85.60
21493;DHT22;10908;50.690;4.400;2023-04-06T10:15:28;8.90;85.60
21493;DHT22;10908;50.690;4.400;2023-04-06T10:17:59;8.80;85.40
21493;DHT22;10908;50.690;4.400;2023-04-06T10:23:31;8.90;85.60
21493;DHT22;10908;50.690;4.400;2023-04-06T10:25:59;8.80;85.60
21493;DHT22;10908;50.690;4.400;2023-04-06T10:28:30;8.90;85.60
21493;DHT22;10908;50.690;4.400;2023-04-06T10:31:01;9.00;85.60
21493;DHT22;10908;50.690;4.400;2023-04-06T10:33:28;8.90;85.40
21493;DHT22;10908;50.690;4.400;2023-04-06T10:35:54;8.90;85.70
21493;DHT22;10908;50.690;4.400;2023-04-06T10:38:37;8.90;86.00
21493;DHT22;10908;50.690;4.400;2023-04-06T10:41:07;8.90;86.20
21493;DHT22;10908;50.690;4.400;2023-04-06T10:43:34;8.90;86.10
21493;DHT22;10908;50.690;4.400;2023-04-06T10:46:01;9.00;86.20
21493;DHT22;10908;50.690;4.400;2023-04-06T10:48:43;9.00;86.10
21493;DHT22;10908;50.690;4.400;2023-04-06T10:51:15;8.90;86.40
21493;DHT22;10908;50.690;4.400;2023-04-06T10:53:42;9.00;86.50
21493;DHT22;10908;50.690;4.400;2023-04-06T10:56:17;9.00;86.70
21493;DHT22;10908;50.690;4.400;2023-04-06T10:58:54;9.10;86.40
21493;DHT22;10908;50.690;4.400;2023-04-06T11:01:24;9.10;86.40
21493;DHT22;10908;50.690;4.400;2023-04-06T11:03:54;8.90;85.70
21493;DHT22;10908;50.690;4.400;2023-04-06T11:06:22;8.90;85.90
21493;DHT22;10908;50.690;4.400;2023-04-06T11:08:49;9.00;85.40
21493;DHT22;10908;50.690;4.400;2023-04-06T11:11:17;9.00;85.90
21493;DHT22;10908;50.690;4.400;2023-04-06T11:14:04;8.90;85.60
21493;DHT22;10908;50.690;4.400;2023-04-06T11:16:31;8.90;85.80
21493;DHT22;10908;50.690;4.400;2023-04-06T11:19:04;9.00;86.00
21493;DHT22;10908;50.690;4.400;2023-04-06T11:24:11;8.90;86.00
21493;DHT22;10908;50.690;4.400;2023-04-06T11:26:38;8.90;86.00
21493;DHT22;10908;50.690;4.400;2023-04-06T11:29:05;8.90;86.10
21493;DHT22;10908;50.690;4.400;2023-04-06T11:31:31;9.00;86.40
21493;DHT22;10908;50.690;4.400;2023-04-06T11:33:57;8.90;86.20
21493;DHT22;10908;50.690;4.400;2023-04-06T11:36:23;9.00;86.30
21493;DHT22;10908;50.690;4.400;2023-04-06T11:38:49;9.00;86.20
21493;DHT22;10908;50.690;4.400;2023-04-06T11:41:15;9.00;86.40
21493;DHT22;10908;50.690;4.400;2023-04-06T11:43:47;9.10;86.30
21493;DHT22;10908;50.690;4.400;2023-04-06T11:46:17;9.10;86.50
21493;DHT22;10908;50.690;4.400;2023-04-06T11:48:46;9.10;86.70
21493;DHT22;10908;50.690;4.400;2023-04-06T11:51:11;9.10;86.80
21493;DHT22;10908;50.690;4.400;2023-04-06T11:53:46;9.20;86.90
21493;DHT22;10908;50.690;4.400;2023-04-06T11:56:26;9.10;87.10
21493;DHT22;10908;50.690;4.400;2023-04-06T11:58:54;9.10;87.50
21493;DHT22;10908;50.690;4.400;2023-04-06T12:01:20;9.20;87.60
21493;DHT22;10908;50.690;4.400;2023-04-06T12:03:45;9.30;87.50
21493;DHT22;10908;50.690;4.400;2023-04-06T12:06:11;9.30;87.40
21493;DHT22;10908;50.690;4.400;2023-04-06T12:08:37;9.30;87.30
21493;DHT22;10908;50.690;4.400;2023-04-06T12:11:03;9.40;87.00
21493;DHT22;10908;50.690;4.400;2023-04-06T12:13:29;9.50;87.40
21493;DHT22;10908;50.690;4.400;2023-04-06T12:15:55;9.60;87.70
21493;DHT22;10908;50.690;4.400;2023-04-06T12:18:20;9.50;87.40
21493;DHT22;10908;50.690;4.400;2023-04-06T12:20:46;9.60;87.20
21493;DHT22;10908;50.690;4.400;2023-04-06T12:23:12;9.40;86.90
21493;DHT22;10908;50.690;4.400;2023-04-06T12:25:39;9.60;87.70
21493;DHT22;10908;50.690;4.400;2023-04-06T12:28:06;9.80;87.90
21493;DHT22;10908;50.690;4.400;2023-04-06T12:30:32;9.80;87.70
21493;DHT22;10908;50.690;4.400;2023-04-06T12:32:58;9.70;87.20
21493;DHT22;10908;50.690;4.400;2023-04-06T12:35:24;9.70;87.30
21493;DHT22;10908;50.690;4.400;2023-04-06T12:37:49;9.80;87.10
21493;DHT22;10908;50.690;4.400;2023-04-06T12:40:15;9.70;87.00
21493;DHT22;10908;50.690;4.400;2023-04-06T12:42:41;9.70;87.10
21493;DHT22;10908;50.690;4.400;2023-04-06T12:45:08;9.60;87.20
21493;DHT22;10908;50.690;4.400;2023-04-06T12:47:34;9.40;87.50
21493;DHT22;10908;50.690;4.400;2023-04-06T12:50:02;9.30;87.80
21493;DHT22;10908;50.690;4.400;2023-04-06T12:52:28;9.20;88.10
21493;DHT22;10908;50.690;4.400;2023-04-06T12:54:56;9.10;88.50
21493;DHT22;10908;50.690;4.400;2023-04-06T12:57:22;9.10;88.70
21493;DHT22;10908;50.690;4.400;2023-04-06T12:59:48;8.90;88.80
21493;DHT22;10908;50.690;4.400;2023-04-06T13:02:14;8.90;89.00
21493;DHT22;10908;50.690;4.400;2023-04-06T13:04:40;8.90;89.10
21493;DHT22;10908;50.690;4.400;2023-04-06T13:07:05;8.90;89.30
21493;DHT22;10908;50.690;4.400;2023-04-06T13:09:31;8.90;89.20
21493;DHT22;10908;50.690;4.400;2023-04-06T13:11:57;8.90;89.20
21493;DHT22;10908;50.690;4.400;2023-04-06T13:14:23;8.90;89.20
21493;DHT22;10908;50.690;4.400;2023-04-06T13:16:48;9.00;89.20
21493;DHT22;10908;50.690;4.400;2023-04-06T13:19:14;9.00;89.20
21493;DHT22;10908;50.690;4.400;2023-04-06T13:21:40;9.00;89.40
21493;DHT22;10908;50.690;4.400;2023-04-06T13:24:06;9.20;89.30
21493;DHT22;10908;50.690;4.400;2023-04-06T13:26:32;9.10;89.20
21493;DHT22;10908;50.690;4.400;2023-04-06T13:28:59;9.20;88.90
21493;DHT22;10908;50.690;4.400;2023-04-06T13:31:26;9.20;88.90
21493;DHT22;10908;50.690;4.400;2023-04-06T13:33:51;9.40;89.00
21493;DHT22;10908;50.690;4.400;2023-04-06T13:36:17;9.50;88.70
21493;DHT22;10908;50.690;4.400;2023-04-06T13:38:43;9.50;88.40
21493;DHT22;10908;50.690;4.400;2023-04-06T13:41:08;9.50;88.10
21493;DHT22;10908;50.690;4.400;2023-04-06T13:43:34;9.50;88.00
21493;DHT22;10908;50.690;4.400;2023-04-06T13:46:00;9.40;87.80
21493;DHT22;10908;50.690;4.400;2023-04-06T13:48:26;9.40;87.90
21493;DHT22;10908;50.690;4.400;2023-04-06T13:50:52;9.40;88.00
21493;DHT22;10908;50.690;4.400;2023-04-06T13:53:18;9.30;88.30
21493;DHT22;10908;50.690;4.400;2023-04-06T13:55:44;9.40;88.60
21493;DHT22;10908;50.690;4.400;2023-04-06T13:58:17;9.40;88.70
21493;DHT22;10908;50.690;4.400;2023-04-06T14:00:42;9.30;88.80
21493;DHT22;10908;50.690;4.400;2023-04-06T14:03:08;9.30;89.40
21493;DHT22;10908;50.690;4.400;2023-04-06T14:05:34;9.30;89.50
21493;DHT22;10908;50.690;4.400;2023-04-06T14:08:00;9.40;89.60
21493;DHT22;10908;50.690;4.400;2023-04-06T14:10:25;9.40;89.60
21493;DHT22;10908;50.690;4.400;2023-04-06T14:12:52;9.40;89.80
21493;DHT22;10908;50.690;4.400;2023-04-06T14:15:18;9.40;90.00
21493;DHT22;10908;50.690;4.400;2023-04-06T14:17:44;9.40;89.90
21493;DHT22;10908;50.690;4.400;2023-04-06T14:20:10;9.50;89.90
21493;DHT22;10908;50.690;4.400;2023-04-06T14:22:41;9.50;89.90
21493;DHT22;10908;50.690;4.400;2023-04-06T14:25:08;9.60;89.90
21493;DHT22;10908;50.690;4.400;2023-04-06T14:27:33;9.60;89.80
21493;DHT22;10908;50.690;4.400;2023-04-06T14:29:59;9.60;89.90
21493;DHT22;10908;50.690;4.400;2023-04-06T14:32:26;9.70;89.80
21493;DHT22;10908;50.690;4.400;2023-04-06T14:34:52;9.70;89.90
21493;DHT22;10908;50.690;4.400;2023-04-06T14:37:17;9.70;89.90
21493;DHT22;10908;50.690;4.400;2023-04-06T14:39:43;9.70;89.90
21493;DHT22;10908;50.690;4.400;2023-04-06T14:42:09;9.70;89.60
21493;DHT22;10908;50.690;4.400;2023-04-06T14:44:35;9.80;89.40
21493;DHT22;10908;50.690;4.400;2023-04-06T14:47:02;9.80;89.10
21493;DHT22;10908;50.690;4.400;2023-04-06T14:49:29;9.80;89.10
21493;DHT22;10908;50.690;4.400;2023-04-06T14:51:55;9.70;89.00
21493;DHT22;10908;50.690;4.400;2023-04-06T14:54:21;9.80;89.30
21493;DHT22;10908;50.690;4.400;2023-04-06T14:56:46;10.00;89.40
21493;DHT22;10908;50.690;4.400;2023-04-06T14:59:12;10.10;89.00
21493;DHT22;10908;50.690;4.400;2023-04-06T15:01:37;10.20;88.80
21493;DHT22;10908;50.690;4.400;2023-04-06T15:04:03;10.30;88.70
21493;DHT22;10908;50.690;4.400;2023-04-06T15:06:29;10.20;88.40
21493;DHT22;10908;50.690;4.400;2023-04-06T15:08:55;10.30;88.40
21493;DHT22;10908;50.690;4.400;2023-04-06T15:11:21;10.40;88.20
21493;DHT22;10908;50.690;4.400;2023-04-06T15:13:47;10.40;88.00
21493;DHT22;10908;50.690;4.400;2023-04-06T15:16:12;10.30;87.90
21493;DHT22;10908;50.690;4.400;2023-04-06T15:18:39;10.30;87.60
21493;DHT22;10908;50.690;4.400;2023-04-06T15:21:06;10.30;87.90
21493;DHT22;10908;50.690;4.400;2023-04-06T15:23:32;10.50;88.10
21493;DHT22;10908;50.690;4.400;2023-04-06T15:25:59;10.50;88.10
21493;DHT22;10908;50.690;4.400;2023-04-06T15:28:25;10.60;87.90
21493;DHT22;10908;50.690;4.400;2023-04-06T15:30:51;10.70;88.00
21493;DHT22;10908;50.690;4.400;2023-04-06T15:33:19;10.70;87.60
21493;DHT22;10908;50.690;4.400;2023-04-06T15:35:46;10.70;87.60
21493;DHT22;10908;50.690;4.400;2023-04-06T15:38:11;10.90;87.70
21493;DHT22;10908;50.690;4.400;2023-04-06T15:40:45;10.90;87.40
21493;DHT22;10908;50.690;4.400;2023-04-06T15:55:19;11.00;87.30
21493;DHT22;10908;50.690;4.400;2023-04-06T15:57:45;11.50;85.50
21493;DHT22;10908;50.690;4.400;2023-04-06T16:00:11;11.40;85.40